Time;durP1;ratioP1;P1;durP2;ratioP2;P2;SDS_P1;SDS_P2;PMS_P1;PMS_P2;Temp;Humidity;BMP_temperature;BMP_pressure;BME280_temperature;BME280_humidity;BME280_pressure;Samples;Min_cycle;Max_cycle;Signal;HPM_P1;HPM_P2
2021/07/24 00:00:15;;;;;;;;;;;;;;;;;;1029127;28;19917;-84
2021/07/24 00:00:46;;;;;;;;;;;;;;;;;;1029229;28;20347;-81
2021/07/24 00:01:16;;;;;;;;;;;;;;;;;;1033641;28;19972;-81
2021/07/24 00:01:46;;;;;;;;;;;;;;;;;;1037386;28;20390;-81
2021/07/24 00:02:16;;;;;;;;;;;;;;;;;;1041283;28;19921;-80
2021/07/24 00:02:47;;;;;;;;;;;;;;;;;;1041596;28;20674;-81
2021/07/24 00:03:17;;;;;;;;;;;;;;;;;;1041616;28;20423;-82
2021/07/24 00:03:47;;;;;;;;;;;;;;;;;;1041504;28;19992;-82
2021/07/24 00:04:17;;;;;;;;;;;;;;;;;;1043632;28;20003;-81
2021/07/24 00:04:48;;;;;;;;;;;;;;;;;;1039060;28;19909;-83
2021/07/24 00:05:18;;;;;;;;;;;;;;;;;;1042531;28;20243;-83
2021/07/24 00:05:48;;;;;;;;;;;;;;;;;;1039528;28;19910;-83
2021/07/24 00:06:18;;;;;;;;;;;;;;;;;;1038675;28;19909;-82
2021/07/24 00:06:48;;;;;;;;;;;;;;;;;;1037941;28;20007;-82
2021/07/24 00:07:19;;;;;;;;;;;;;;;;;;1036840;28;20370;-83
2021/07/24 00:07:49;;;;;;;;;;;;;;;;;;1040802;28;19960;-82
2021/07/24 00:08:20;;;;;;;;;;;;;;;;;;1040895;28;19914;-81
2021/07/24 00:08:50;;;;;;;;;;;;;;;;;;1037084;28;19917;-81
2021/07/24 00:09:20;;;;;;;;;;;;;;;;;;1041116;28;19909;-83
2021/07/24 00:09:50;;;;;;;;;;;;;;;;;;1036908;28;19909;-81
2021/07/24 00:10:21;;;;;;;;;;;;;;;;;;1032402;28;20363;-82
2021/07/24 00:10:51;;;;;;;;;;;;;;;;;;1028805;28;19910;-82
2021/07/24 00:11:21;;;;;;;;;;;;;;;;;;1032979;28;19916;-81
2021/07/24 00:11:51;;;;;;;;;;;;;;;;;;1032946;28;20383;-83
2021/07/24 00:12:22;;;;;;;;;;;;;;;;;;1024685;29;19918;-80
2021/07/24 00:12:52;;;;;;;;;;;;;;;;;;1020912;29;19963;-81
2021/07/24 00:13:22;;;;;;;;;;;;;;;;;;1021281;29;19907;-82
2021/07/24 00:13:52;;;;;;;;;;;;;;;;;;1025098;29;19910;-82
2021/07/24 00:14:23;;;;;;;;;;;;;;;;;;1032873;28;19917;-82
2021/07/24 00:14:53;;;;;;;;;;;;;;;;;;1037059;28;20383;-83
2021/07/24 00:15:23;;;;;;;;;;;;;;;;;;1041002;28;20366;-80
2021/07/24 00:15:53;;;;;;;;;;;;;;;;;;1036875;28;19953;-81
2021/07/24 00:16:24;;;;;;;;;;;;;;;;;;1032905;28;19910;-82
2021/07/24 00:16:54;;;;;;;;;;;;;;;;;;1033192;28;19909;-83
2021/07/24 00:17:24;;;;;;;;;;;;;;;;;;1028805;28;19918;-83
2021/07/24 00:17:54;;;;;;;;;;;;;;;;;;1029236;28;19910;-81
2021/07/24 00:18:25;;;;;;;;;;;;;;;;;;1029023;28;19910;-82
2021/07/24 00:18:55;;;;;;;;;;;;;;;;;;1029036;28;20005;-81
2021/07/24 00:19:25;;;;;;;;;;;;;;;;;;1037122;28;19945;-81
2021/07/24 00:19:55;;;;;;;;;;;;;;;;;;1037260;28;20001;-80
2021/07/24 00:20:26;;;;;;;;;;;;;;;;;;1037080;28;19993;-82
2021/07/24 00:20:56;;;;;;;;;;;;;;;;;;1041095;28;20003;-81
2021/07/24 00:21:26;;;;;;;;;;;;;;;;;;1040965;28;19972;-80
2021/07/24 00:21:56;;;;;;;;;;;;;;;;;;1033075;28;19948;-80
2021/07/24 00:22:27;;;;;;;;;;;;;;;;;;1033267;28;19909;-82
2021/07/24 00:22:57;;;;;;;;;;;;;;;;;;1032983;28;19906;-80
2021/07/24 00:23:27;;;;;;;;;;;;;;;;;;1036963;28;19909;-81
2021/07/24 00:23:57;;;;;;;;;;;;;;;;;;1041259;28;19905;-81
2021/07/24 00:24:28;;;;;;;;;;;;;;;;;;1037093;28;19913;-81
2021/07/24 00:24:58;;;;;;;;;;;;;;;;;;1037309;28;20367;-80
2021/07/24 00:25:28;;;;;;;;;;;;;;;;;;1037045;28;19944;-82
2021/07/24 00:25:58;;;;;;;;;;;;;;;;;;1037373;28;20075;-80
2021/07/24 00:26:29;;;;;;;;;;;;;;;;;;1037261;28;19910;-82
2021/07/24 00:26:59;;;;;;;;;;;;;;;;;;1037290;28;20437;-81
2021/07/24 00:27:29;;;;;;;;;;;;;;;;;;1037135;28;19973;-81
2021/07/24 00:27:59;;;;;;;;;;;;;;;;;;1037514;28;20070;-80
2021/07/24 00:28:30;;;;;;;;;;;;;;;;;;1037339;28;20264;-80
2021/07/24 00:29:02;;;;;;;;;;;;;;;;;;1041080;28;19908;-81
2021/07/24 00:29:32;;;;;;;;;;;;;;;;;;1037481;28;19905;-81
2021/07/24 00:30:03;;;;;;;;;;;;;;;;;;1041412;28;19913;-80
2021/07/24 00:30:33;;;;;;;;;;;;;;;;;;1041328;28;19905;-82
2021/07/24 00:31:03;;;;;;;;;;;;;;;;;;1037355;28;20005;-81
2021/07/24 00:31:33;;;;;;;;;;;;;;;;;;1037041;28;19905;-80
2021/07/24 00:32:04;;;;;;;;;;;;;;;;;;1037536;28;19908;-80
2021/07/24 00:32:34;;;;;;;;;;;;;;;;;;1037114;28;20034;-80
2021/07/24 00:33:04;;;;;;;;;;;;;;;;;;1037161;28;20012;-82
2021/07/24 00:33:35;;;;;;;;;;;;;;;;;;1041696;28;19905;-80
2021/07/24 00:34:05;;;;;;;;;;;;;;;;;;1041552;28;20327;-80
2021/07/24 00:34:35;;;;;;;;;;;;;;;;;;1037237;28;19906;-80
2021/07/24 00:35:06;;;;;;;;;;;;;;;;;;1037091;28;19914;-81
2021/07/24 00:35:36;;;;;;;;;;;;;;;;;;1037629;28;20446;-80
2021/07/24 00:36:06;;;;;;;;;;;;;;;;;;1033457;28;20364;-80
2021/07/24 00:36:37;;;;;;;;;;;;;;;;;;1033038;28;19928;-79
2021/07/24 00:37:07;;;;;;;;;;;;;;;;;;1033247;28;20001;-79
2021/07/24 00:37:37;;;;;;;;;;;;;;;;;;1033805;28;19977;-80
2021/07/24 00:38:07;;;;;;;;;;;;;;;;;;1037088;28;20340;-80
2021/07/24 00:38:38;;;;;;;;;;;;;;;;;;1037360;28;19906;-80
2021/07/24 00:39:08;;;;;;;;;;;;;;;;;;1037403;28;19912;-82
2021/07/24 00:39:38;;;;;;;;;;;;;;;;;;1037367;28;20546;-80
2021/07/24 00:40:08;;;;;;;;;;;;;;;;;;1037114;28;19906;-83
2021/07/24 00:40:39;;;;;;;;;;;;;;;;;;1041431;28;19984;-79
2021/07/24 00:41:09;;;;;;;;;;;;;;;;;;1037054;28;19996;-80
2021/07/24 00:41:39;;;;;;;;;;;;;;;;;;1033081;28;20028;-81
2021/07/24 00:42:09;;;;;;;;;;;;;;;;;;1029292;28;19946;-80
2021/07/24 00:42:40;;;;;;;;;;;;;;;;;;1031394;28;19977;-79
2021/07/24 00:43:10;;;;;;;;;;;;;;;;;;1036846;28;19906;-82
2021/07/24 00:43:40;;;;;;;;;;;;;;;;;;1036651;28;19906;-82
2021/07/24 00:44:10;;;;;;;;;;;;;;;;;;1039717;28;20004;-81
2021/07/24 00:44:45;;;;;;;;;;;;;;;;;;1036849;28;19944;-82
2021/07/24 00:45:15;;;;;;;;;;;;;;;;;;1036947;28;20251;-83
2021/07/24 00:45:46;;;;;;;;;;;;;;;;;;1036877;28;19906;-82
2021/07/24 00:46:16;;;;;;;;;;;;;;;;;;1036883;28;19906;-83
2021/07/24 00:46:46;;;;;;;;;;;;;;;;;;1036779;28;19955;-81
2021/07/24 00:47:17;;;;;;;;;;;;;;;;;;1032851;28;19995;-82
2021/07/24 00:47:47;;;;;;;;;;;;;;;;;;1036740;28;19952;-83
2021/07/24 00:48:17;;;;;;;;;;;;;;;;;;1036726;28;20422;-80
2021/07/24 00:48:48;;;;;;;;;;;;;;;;;;1036514;28;19910;-81
2021/07/24 00:49:18;;;;;;;;;;;;;;;;;;1040746;28;19909;-80
2021/07/24 00:49:48;;;;;;;;;;;;;;;;;;1036603;28;19909;-81
2021/07/24 00:50:18;;;;;;;;;;;;;;;;;;1036768;28;19909;-81
2021/07/24 00:50:49;;;;;;;;;;;;;;;;;;1036735;28;20335;-82
2021/07/24 00:51:19;;;;;;;;;;;;;;;;;;1036831;28;19964;-83
2021/07/24 00:51:53;;;;;;;;;;;;;;;;;;1032543;28;20386;-83
2021/07/24 00:52:23;;;;;;;;;;;;;;;;;;1032600;28;19910;-83
2021/07/24 00:52:59;;;;;;;;;;;;;;;;;;1029163;28;19910;-83
2021/07/24 00:53:36;;;;;;;;;;;;;;;;;;1024730;29;20299;-82
2021/07/24 00:54:07;;;;;;;;;;;;;;;;;;1026423;28;19913;-82
2021/07/24 00:54:41;;;;;;;;;;;;;;;;;;1026613;28;19910;-82
2021/07/24 00:55:11;;;;;;;;;;;;;;;;;;1031498;28;20004;-81
2021/07/24 00:55:41;;;;;;;;;;;;;;;;;;1032578;28;19906;-81
2021/07/24 00:56:11;;;;;;;;;;;;;;;;;;1033020;28;19913;-81
2021/07/24 00:56:42;;;;;;;;;;;;;;;;;;1036732;28;19909;-81
2021/07/24 00:57:13;;;;;;;;;;;;;;;;;;1032513;28;19993;-81
2021/07/24 00:57:46;;;;;;;;;;;;;;;;;;1036956;28;20020;-83
2021/07/24 00:58:16;;;;;;;;;;;;;;;;;;1032524;28;20426;-83
2021/07/24 00:58:46;;;;;;;;;;;;;;;;;;1033341;28;19941;-82
2021/07/24 00:59:17;;;;;;;;;;;;;;;;;;1036575;28;19909;-80
2021/07/24 00:59:47;;;;;;;;;;;;;;;;;;1032769;28;20012;-81
2021/07/24 01:00:17;;;;;;;;;;;;;;;;;;1036857;28;19909;-83
2021/07/24 01:00:47;;;;;;;;;;;;;;;;;;1032664;28;19910;-81
2021/07/24 01:01:18;;;;;;;;;;;;;;;;;;1032782;28;19906;-82
2021/07/24 01:01:48;;;;;;;;;;;;;;;;;;1036826;28;19917;-82
2021/07/24 01:02:18;;;;;;;;;;;;;;;;;;1036701;28;19983;-82
2021/07/24 01:02:48;;;;;;;;;;;;;;;;;;1036636;28;20421;-81
2021/07/24 01:03:19;;;;;;;;;;;;;;;;;;1032609;28;20024;-80
2021/07/24 01:03:49;;;;;;;;;;;;;;;;;;1032905;28;19949;-83
2021/07/24 01:04:19;;;;;;;;;;;;;;;;;;1032814;28;19910;-82
2021/07/24 01:04:50;;;;;;;;;;;;;;;;;;1036939;28;20091;-81
2021/07/24 01:05:20;;;;;;;;;;;;;;;;;;1041097;28;19909;-82
2021/07/24 01:05:50;;;;;;;;;;;;;;;;;;1040951;28;19913;-80
2021/07/24 01:06:20;;;;;;;;;;;;;;;;;;1036918;28;19915;-82
2021/07/24 01:06:51;;;;;;;;;;;;;;;;;;1037054;28;19909;-81
2021/07/24 01:07:21;;;;;;;;;;;;;;;;;;1033069;28;19914;-81
2021/07/24 01:07:52;;;;;;;;;;;;;;;;;;1032740;28;20044;-81
2021/07/24 01:08:22;;;;;;;;;;;;;;;;;;1037018;28;20042;-80
2021/07/24 01:08:52;;;;;;;;;;;;;;;;;;1036701;28;19932;-82
2021/07/24 01:09:24;;;;;;;;;;;;;;;;;;1041250;28;20405;-84
2021/07/24 01:09:54;;;;;;;;;;;;;;;;;;1041011;28;20334;-84
2021/07/24 01:10:24;;;;;;;;;;;;;;;;;;1036955;28;19905;-81
2021/07/24 01:10:55;;;;;;;;;;;;;;;;;;1032408;28;19906;-81
2021/07/24 01:11:25;;;;;;;;;;;;;;;;;;1032882;28;19929;-81
2021/07/24 01:11:55;;;;;;;;;;;;;;;;;;1033042;28;19926;-81
2021/07/24 01:12:25;;;;;;;;;;;;;;;;;;1032676;28;19909;-83
2021/07/24 01:12:56;;;;;;;;;;;;;;;;;;1041174;28;19988;-82
2021/07/24 01:13:26;;;;;;;;;;;;;;;;;;1036937;28;19937;-82
2021/07/24 01:13:56;;;;;;;;;;;;;;;;;;1033022;28;19991;-82
2021/07/24 01:14:27;;;;;;;;;;;;;;;;;;1032983;28;19961;-81
2021/07/24 01:14:57;;;;;;;;;;;;;;;;;;1033010;28;19917;-83
2021/07/24 01:15:27;;;;;;;;;;;;;;;;;;1036956;28;19905;-83
2021/07/24 01:15:57;;;;;;;;;;;;;;;;;;1032860;28;19906;-83
2021/07/24 01:16:28;;;;;;;;;;;;;;;;;;1033136;28;19906;-82
2021/07/24 01:16:58;;;;;;;;;;;;;;;;;;1032836;28;19906;-83
2021/07/24 01:17:28;;;;;;;;;;;;;;;;;;1032941;28;19912;-80
2021/07/24 01:17:58;;;;;;;;;;;;;;;;;;1037018;28;19936;-82
2021/07/24 01:18:29;;;;;;;;;;;;;;;;;;1037354;28;20343;-82
2021/07/24 01:18:59;;;;;;;;;;;;;;;;;;1036827;28;19948;-80
2021/07/24 01:19:29;;;;;;;;;;;;;;;;;;1032794;28;19913;-81
2021/07/24 01:20:00;;;;;;;;;;;;;;;;;;1028809;28;20332;-81
2021/07/24 01:20:30;;;;;;;;;;;;;;;;;;1029206;28;19903;-81
2021/07/24 01:21:00;;;;;;;;;;;;;;;;;;1024686;29;20258;-81
2021/07/24 01:21:30;;;;;;;;;;;;;;;;;;1029076;28;19926;-80
2021/07/24 01:22:01;;;;;;;;;;;;;;;;;;1037035;28;20048;-80
2021/07/24 01:22:31;;;;;;;;;;;;;;;;;;1028943;28;20033;-80
2021/07/24 01:23:01;;;;;;;;;;;;;;;;;;1033918;28;20385;-80
2021/07/24 01:23:31;;;;;;;;;;;;;;;;;;1033791;28;19996;-82
2021/07/24 01:24:02;;;;;;;;;;;;;;;;;;1029772;28;19918;-83
2021/07/24 01:24:32;;;;;;;;;;;;;;;;;;1033863;28;19906;-81
2021/07/24 01:25:03;;;;;;;;;;;;;;;;;;1033983;28;19917;-80
2021/07/24 01:25:33;;;;;;;;;;;;;;;;;;1029862;28;19910;-83
2021/07/24 01:26:03;;;;;;;;;;;;;;;;;;1029721;28;20416;-80
2021/07/24 01:26:37;;;;;;;;;;;;;;;;;;1029811;28;19910;-82
2021/07/24 01:27:07;;;;;;;;;;;;;;;;;;1030162;28;20388;-81
2021/07/24 01:27:37;;;;;;;;;;;;;;;;;;1030094;28;19910;-80
2021/07/24 01:28:07;;;;;;;;;;;;;;;;;;1033863;28;19917;-82
2021/07/24 01:28:38;;;;;;;;;;;;;;;;;;1029787;28;19957;-79
2021/07/24 01:29:08;;;;;;;;;;;;;;;;;;1029499;28;20448;-81
2021/07/24 01:29:38;;;;;;;;;;;;;;;;;;1029424;28;19910;-80
2021/07/24 01:30:08;;;;;;;;;;;;;;;;;;1029204;28;19906;-80
2021/07/24 01:30:39;;;;;;;;;;;;;;;;;;1033510;28;19948;-79
2021/07/24 01:31:09;;;;;;;;;;;;;;;;;;1033519;28;19906;-80
2021/07/24 01:31:39;;;;;;;;;;;;;;;;;;1033755;28;20419;-81
2021/07/24 01:32:09;;;;;;;;;;;;;;;;;;1033820;28;20016;-80
2021/07/24 01:32:40;;;;;;;;;;;;;;;;;;1038108;28;19909;-80
2021/07/24 01:33:10;;;;;;;;;;;;;;;;;;1037804;28;19910;-80
2021/07/24 01:33:40;;;;;;;;;;;;;;;;;;1033672;28;20439;-80
2021/07/24 01:34:10;;;;;;;;;;;;;;;;;;1033626;28;19905;-81
2021/07/24 01:34:41;;;;;;;;;;;;;;;;;;1033631;28;19957;-80
2021/07/24 01:35:11;;;;;;;;;;;;;;;;;;1037812;28;19973;-83
2021/07/24 01:35:41;;;;;;;;;;;;;;;;;;1037642;28;19910;-81
2021/07/24 01:36:11;;;;;;;;;;;;;;;;;;1033520;28;19961;-81
2021/07/24 01:36:42;;;;;;;;;;;;;;;;;;1037771;28;19910;-80
2021/07/24 01:37:12;;;;;;;;;;;;;;;;;;1033582;28;20354;-80
2021/07/24 01:37:42;;;;;;;;;;;;;;;;;;1033589;28;19941;-79
2021/07/24 01:38:12;;;;;;;;;;;;;;;;;;1037864;28;19959;-81
2021/07/24 01:38:43;;;;;;;;;;;;;;;;;;1037860;28;19917;-79
2021/07/24 01:39:13;;;;;;;;;;;;;;;;;;1038150;28;20000;-80
2021/07/24 01:39:43;;;;;;;;;;;;;;;;;;1038233;28;20024;-81
2021/07/24 01:40:14;;;;;;;;;;;;;;;;;;1033805;28;19910;-80
2021/07/24 01:40:44;;;;;;;;;;;;;;;;;;1037629;28;19993;-80
2021/07/24 01:41:14;;;;;;;;;;;;;;;;;;1037593;28;20393;-80
2021/07/24 01:41:44;;;;;;;;;;;;;;;;;;1033515;28;20028;-82
2021/07/24 01:42:15;;;;;;;;;;;;;;;;;;1037809;28;19967;-80
2021/07/24 01:42:45;;;;;;;;;;;;;;;;;;1037669;28;20272;-79
2021/07/24 01:43:15;;;;;;;;;;;;;;;;;;1037625;28;19917;-81
2021/07/24 01:43:45;;;;;;;;;;;;;;;;;;1037591;28;20354;-79
2021/07/24 01:44:16;;;;;;;;;;;;;;;;;;1036907;28;19980;-80
2021/07/24 01:44:46;;;;;;;;;;;;;;;;;;1037486;28;19932;-80
2021/07/24 01:45:16;;;;;;;;;;;;;;;;;;1033226;28;19910;-81
2021/07/24 01:45:46;;;;;;;;;;;;;;;;;;1037518;28;19910;-80
2021/07/24 01:46:17;;;;;;;;;;;;;;;;;;1033132;28;19910;-81
2021/07/24 01:46:47;;;;;;;;;;;;;;;;;;1029076;28;20014;-81
2021/07/24 01:47:17;;;;;;;;;;;;;;;;;;1033269;28;19906;-80
2021/07/24 01:47:49;;;;;;;;;;;;;;;;;;1029218;28;19911;-81
2021/07/24 01:48:31;;;;;;;;;;;;;;;;;;1029309;28;20005;-80
2021/07/24 01:52:46;;;;;;;;;;;;;;;;;;1037712;28;19917;-80
2021/07/24 01:53:18;;;;;;;;;;;;;;;;;;1037926;28;19976;-80
2021/07/24 01:53:48;;;;;;;;;;;;;;;;;;1037375;28;19916;-80
2021/07/24 01:54:18;;;;;;;;;;;;;;;;;;1038494;28;20295;-80
2021/07/24 01:54:49;;;;;;;;;;;;;;;;;;1037757;28;19910;-80
2021/07/24 01:55:19;;;;;;;;;;;;;;;;;;1037592;28;20339;-80
2021/07/24 01:55:51;;;;;;;;;;;;;;;;;;1037534;28;20016;-80
2021/07/24 01:56:21;;;;;;;;;;;;;;;;;;1038277;28;19917;-80
2021/07/24 01:56:51;;;;;;;;;;;;;;;;;;1038336;28;19909;-81
2021/07/24 01:57:21;;;;;;;;;;;;;;;;;;1038126;28;20040;-81
2021/07/24 01:57:53;;;;;;;;;;;;;;;;;;1038248;28;19909;-80
2021/07/24 01:58:23;;;;;;;;;;;;;;;;;;1038096;28;19910;-79
2021/07/24 01:58:53;;;;;;;;;;;;;;;;;;1041784;28;20016;-79
2021/07/24 01:59:24;;;;;;;;;;;;;;;;;;1042287;28;19913;-81
2021/07/24 01:59:54;;;;;;;;;;;;;;;;;;1038055;28;19981;-80
2021/07/24 02:00:24;;;;;;;;;;;;;;;;;;1037606;28;19910;-81
2021/07/24 02:00:55;;;;;;;;;;;;;;;;;;1037434;28;19917;-79
2021/07/24 02:01:25;;;;;;;;;;;;;;;;;;1037506;28;20000;-80
2021/07/24 02:01:55;;;;;;;;;;;;;;;;;;1041794;28;19913;-80
2021/07/24 02:02:26;;;;;;;;;;;;;;;;;;1041821;28;19909;-79
2021/07/24 02:02:56;;;;;;;;;;;;;;;;;;1037410;28;19906;-79
2021/07/24 02:03:26;;;;;;;;;;;;;;;;;;1037681;28;20045;-79
2021/07/24 02:03:56;;;;;;;;;;;;;;;;;;1037549;28;20466;-80
2021/07/24 02:04:27;;;;;;;;;;;;;;;;;;1037562;28;19910;-78
2021/07/24 02:04:57;;;;;;;;;;;;;;;;;;1043853;28;19913;-80
2021/07/24 02:05:28;;;;;;;;;;;;;;;;;;1044925;28;19941;-80
2021/07/24 02:05:58;;;;;;;;;;;;;;;;;;1041452;28;19937;-79
2021/07/24 02:06:28;;;;;;;;;;;;;;;;;;1041152;28;19989;-80
2021/07/24 02:06:58;;;;;;;;;;;;;;;;;;1044402;28;19949;-80
2021/07/24 02:07:29;;;;;;;;;;;;;;;;;;1041699;28;20397;-81
2021/07/24 02:07:59;;;;;;;;;;;;;;;;;;1041609;28;20306;-81
2021/07/24 02:08:29;;;;;;;;;;;;;;;;;;1041448;28;19909;-83
2021/07/24 02:08:59;;;;;;;;;;;;;;;;;;1036950;28;19916;-81
2021/07/24 02:09:30;;;;;;;;;;;;;;;;;;1037032;28;20016;-81
2021/07/24 02:10:00;;;;;;;;;;;;;;;;;;1033235;28;19944;-80
2021/07/24 02:10:30;;;;;;;;;;;;;;;;;;1029170;28;19906;-80
2021/07/24 02:11:00;;;;;;;;;;;;;;;;;;1029442;28;19917;-82
2021/07/24 02:11:31;;;;;;;;;;;;;;;;;;1033380;28;19905;-82
2021/07/24 02:12:01;;;;;;;;;;;;;;;;;;1033536;28;19944;-80
2021/07/24 02:12:31;;;;;;;;;;;;;;;;;;1029176;28;20383;-79
2021/07/24 02:13:01;;;;;;;;;;;;;;;;;;1029553;28;19913;-82
2021/07/24 02:13:32;;;;;;;;;;;;;;;;;;1033395;28;19957;-80
2021/07/24 02:14:02;;;;;;;;;;;;;;;;;;1029281;28;19961;-80
2021/07/24 02:14:35;;;;;;;;;;;;;;;;;;1033449;28;19932;-80
2021/07/24 02:15:05;;;;;;;;;;;;;;;;;;1037960;28;20415;-80
2021/07/24 02:15:35;;;;;;;;;;;;;;;;;;1037393;28;19910;-80
2021/07/24 02:16:06;;;;;;;;;;;;;;;;;;1037988;28;19936;-81
2021/07/24 02:16:36;;;;;;;;;;;;;;;;;;1041538;28;20012;-79
2021/07/24 02:17:07;;;;;;;;;;;;;;;;;;1037563;28;20012;-79
2021/07/24 02:17:37;;;;;;;;;;;;;;;;;;1037488;28;19909;-79
2021/07/24 02:18:07;;;;;;;;;;;;;;;;;;1037845;28;19917;-79
2021/07/24 02:18:37;;;;;;;;;;;;;;;;;;1035595;28;19906;-80
2021/07/24 02:19:07;;;;;;;;;;;;;;;;;;1041530;28;19936;-80
2021/07/24 02:19:38;;;;;;;;;;;;;;;;;;1041946;28;19968;-79
2021/07/24 02:20:08;;;;;;;;;;;;;;;;;;1041169;28;19910;-82
2021/07/24 02:20:38;;;;;;;;;;;;;;;;;;1042415;28;19909;-81
2021/07/24 02:21:09;;;;;;;;;;;;;;;;;;1045910;28;19913;-79
2021/07/24 02:21:39;;;;;;;;;;;;;;;;;;1045133;28;19893;-82
2021/07/24 02:22:09;;;;;;;;;;;;;;;;;;1041903;28;19905;-80
2021/07/24 02:22:39;;;;;;;;;;;;;;;;;;1041476;28;19916;-81
2021/07/24 02:23:09;;;;;;;;;;;;;;;;;;1041814;28;19968;-81
2021/07/24 02:23:40;;;;;;;;;;;;;;;;;;1041618;28;19929;-80
2021/07/24 02:24:10;;;;;;;;;;;;;;;;;;1045793;28;19889;-81
2021/07/24 02:24:40;;;;;;;;;;;;;;;;;;1041660;28;19897;-80
2021/07/24 02:25:11;;;;;;;;;;;;;;;;;;1037835;28;19905;-80
2021/07/24 02:25:41;;;;;;;;;;;;;;;;;;1033659;28;19895;-81
2021/07/24 02:26:12;;;;;;;;;;;;;;;;;;1029792;28;19919;-80
2021/07/24 02:26:42;;;;;;;;;;;;;;;;;;1037950;28;19973;-80
2021/07/24 02:27:12;;;;;;;;;;;;;;;;;;1038103;28;19890;-81
2021/07/24 02:27:42;;;;;;;;;;;;;;;;;;1037859;28;19898;-80
2021/07/24 02:28:13;;;;;;;;;;;;;;;;;;1037840;28;19905;-81
2021/07/24 02:28:43;;;;;;;;;;;;;;;;;;1038011;28;19898;-80
2021/07/24 02:29:13;;;;;;;;;;;;;;;;;;1042098;28;19961;-80
2021/07/24 02:29:43;;;;;;;;;;;;;;;;;;1041838;28;19976;-80
2021/07/24 02:30:14;;;;;;;;;;;;;;;;;;1046109;28;20015;-80
2021/07/24 02:30:44;;;;;;;;;;;;;;;;;;1046072;28;19897;-81
2021/07/24 02:31:14;;;;;;;;;;;;;;;;;;1046191;28;19996;-80
2021/07/24 02:31:44;;;;;;;;;;;;;;;;;;1045974;28;19897;-82
2021/07/24 02:32:17;;;;;;;;;;;;;;;;;;1046077;28;19940;-81
2021/07/24 02:32:47;;;;;;;;;;;;;;;;;;1046032;28;19901;-81
2021/07/24 02:33:18;;;;;;;;;;;;;;;;;;1044749;28;19909;-81
2021/07/24 02:33:48;;;;;;;;;;;;;;;;;;1040334;28;19972;-82
2021/07/24 02:34:18;;;;;;;;;;;;;;;;;;1035783;28;19977;-81
2021/07/24 02:34:49;;;;;;;;;;;;;;;;;;1037555;28;19929;-81
2021/07/24 02:35:19;;;;;;;;;;;;;;;;;;1037932;28;19934;-80
2021/07/24 02:35:49;;;;;;;;;;;;;;;;;;1042108;28;19941;-78
2021/07/24 02:36:20;;;;;;;;;;;;;;;;;;1042097;28;19937;-80
2021/07/24 02:36:50;;;;;;;;;;;;;;;;;;1042150;28;19902;-80
2021/07/24 02:37:20;;;;;;;;;;;;;;;;;;1042142;28;19973;-79
2021/07/24 02:37:50;;;;;;;;;;;;;;;;;;1042080;28;19952;-79
2021/07/24 02:38:21;;;;;;;;;;;;;;;;;;1042021;28;19894;-80
2021/07/24 02:38:51;;;;;;;;;;;;;;;;;;1041799;28;19972;-78
2021/07/24 02:39:22;;;;;;;;;;;;;;;;;;1038024;28;19961;-81
2021/07/24 02:39:52;;;;;;;;;;;;;;;;;;1037858;28;19910;-82
2021/07/24 02:40:23;;;;;;;;;;;;;;;;;;1042120;28;19897;-81
2021/07/24 02:40:53;;;;;;;;;;;;;;;;;;1041884;28;19905;-81
2021/07/24 02:41:23;;;;;;;;;;;;;;;;;;1042010;28;19910;-83
2021/07/24 02:41:53;;;;;;;;;;;;;;;;;;1041739;28;19916;-82
2021/07/24 02:42:24;;;;;;;;;;;;;;;;;;1041729;28;19900;-79
2021/07/24 02:42:54;;;;;;;;;;;;;;;;;;1042023;28;19933;-81
2021/07/24 02:43:25;;;;;;;;;;;;;;;;;;1041867;28;19901;-79
2021/07/24 02:43:55;;;;;;;;;;;;;;;;;;1046053;28;19897;-79
2021/07/24 02:44:26;;;;;;;;;;;;;;;;;;1046027;28;19960;-78
2021/07/24 02:44:56;;;;;;;;;;;;;;;;;;1041798;28;19965;-81
2021/07/24 02:45:26;;;;;;;;;;;;;;;;;;1037905;28;19898;-80
2021/07/24 02:45:56;;;;;;;;;;;;;;;;;;1037837;28;19917;-80
2021/07/24 02:46:27;;;;;;;;;;;;;;;;;;1033746;28;19922;-80
2021/07/24 02:46:57;;;;;;;;;;;;;;;;;;1032653;28;19898;-82
2021/07/24 02:47:27;;;;;;;;;;;;;;;;;;1033741;28;19921;-80
2021/07/24 02:47:57;;;;;;;;;;;;;;;;;;1028436;29;19966;-84
2021/07/24 02:48:28;;;;;;;;;;;;;;;;;;1032592;28;19910;-81
2021/07/24 02:48:58;;;;;;;;;;;;;;;;;;1030993;28;20311;-82
2021/07/24 02:49:28;;;;;;;;;;;;;;;;;;1029950;28;19960;-83
2021/07/24 02:49:58;;;;;;;;;;;;;;;;;;1037610;28;19910;-82
2021/07/24 02:50:29;;;;;;;;;;;;;;;;;;1037830;28;19916;-82
2021/07/24 02:50:59;;;;;;;;;;;;;;;;;;1037935;28;19906;-81
2021/07/24 02:51:29;;;;;;;;;;;;;;;;;;1037941;28;19910;-81
2021/07/24 02:51:59;;;;;;;;;;;;;;;;;;1041970;28;19984;-82
2021/07/24 02:52:30;;;;;;;;;;;;;;;;;;1041833;28;19898;-81
2021/07/24 02:53:00;;;;;;;;;;;;;;;;;;1041889;28;19913;-82
2021/07/24 02:53:30;;;;;;;;;;;;;;;;;;1041893;28;19914;-80
2021/07/24 02:54:01;;;;;;;;;;;;;;;;;;1037767;28;19942;-81
2021/07/24 02:54:31;;;;;;;;;;;;;;;;;;1037935;28;19928;-80
2021/07/24 02:55:01;;;;;;;;;;;;;;;;;;1041812;28;19912;-80
2021/07/24 02:55:31;;;;;;;;;;;;;;;;;;1032086;28;19907;-82
2021/07/24 02:56:01;;;;;;;;;;;;;;;;;;1033623;28;19941;-82
2021/07/24 02:56:32;;;;;;;;;;;;;;;;;;1033150;28;19913;-82
2021/07/24 02:57:02;;;;;;;;;;;;;;;;;;1033279;28;19970;-81
2021/07/24 02:57:32;;;;;;;;;;;;;;;;;;1037461;28;19910;-81
2021/07/24 02:58:02;;;;;;;;;;;;;;;;;;1037488;28;20064;-81
2021/07/24 02:58:33;;;;;;;;;;;;;;;;;;1033516;28;19934;-81
2021/07/24 02:59:03;;;;;;;;;;;;;;;;;;1033535;28;19898;-82
2021/07/24 02:59:33;;;;;;;;;;;;;;;;;;1035775;28;19933;-81
2021/07/24 03:00:04;;;;;;;;;;;;;;;;;;1031595;28;19970;-82
2021/07/24 03:00:34;;;;;;;;;;;;;;;;;;1031671;28;20004;-81
2021/07/24 03:01:04;;;;;;;;;;;;;;;;;;1032769;28;19899;-82
2021/07/24 03:01:34;;;;;;;;;;;;;;;;;;1033475;28;19910;-81
2021/07/24 03:02:04;;;;;;;;;;;;;;;;;;1037789;28;19894;-82
2021/07/24 03:02:35;;;;;;;;;;;;;;;;;;1038913;28;19898;-82
2021/07/24 03:03:05;;;;;;;;;;;;;;;;;;1046097;28;19910;-81
2021/07/24 03:03:35;;;;;;;;;;;;;;;;;;1041881;28;19909;-80
2021/07/24 03:04:06;;;;;;;;;;;;;;;;;;1042021;28;19984;-80
2021/07/24 03:04:36;;;;;;;;;;;;;;;;;;1041926;28;19924;-80
2021/07/24 03:05:06;;;;;;;;;;;;;;;;;;1042001;28;19893;-81
2021/07/24 03:05:36;;;;;;;;;;;;;;;;;;1041642;28;19940;-81
2021/07/24 03:06:07;;;;;;;;;;;;;;;;;;1041866;28;19961;-80
2021/07/24 03:06:37;;;;;;;;;;;;;;;;;;1037671;28;19922;-80
2021/07/24 03:07:07;;;;;;;;;;;;;;;;;;1041826;28;19977;-81
2021/07/24 03:07:37;;;;;;;;;;;;;;;;;;1035069;28;19941;-81
2021/07/24 03:08:08;;;;;;;;;;;;;;;;;;1033611;28;19914;-81
2021/07/24 03:08:38;;;;;;;;;;;;;;;;;;1033603;28;19914;-81
2021/07/24 03:09:09;;;;;;;;;;;;;;;;;;1034398;28;20014;-80
2021/07/24 03:09:39;;;;;;;;;;;;;;;;;;1041535;28;19906;-80
2021/07/24 03:10:10;;;;;;;;;;;;;;;;;;1041684;28;20666;-81
2021/07/24 03:10:40;;;;;;;;;;;;;;;;;;1041552;28;19916;-81
2021/07/24 03:11:10;;;;;;;;;;;;;;;;;;1041753;28;19906;-81
2021/07/24 03:11:40;;;;;;;;;;;;;;;;;;1044507;28;19915;-82
2021/07/24 03:12:11;;;;;;;;;;;;;;;;;;1042871;28;20377;-82
2021/07/24 03:12:41;;;;;;;;;;;;;;;;;;1041835;28;19909;-81
2021/07/24 03:13:11;;;;;;;;;;;;;;;;;;1042447;28;19913;-83
2021/07/24 03:13:41;;;;;;;;;;;;;;;;;;1037530;28;19924;-80
2021/07/24 03:14:12;;;;;;;;;;;;;;;;;;1033617;28;19906;-80
2021/07/24 03:14:42;;;;;;;;;;;;;;;;;;1033546;28;20268;-81
2021/07/24 03:15:12;;;;;;;;;;;;;;;;;;1032387;28;19906;-81
2021/07/24 03:15:42;;;;;;;;;;;;;;;;;;1029769;28;19910;-80
2021/07/24 03:16:13;;;;;;;;;;;;;;;;;;1029855;28;19961;-79
2021/07/24 03:16:43;;;;;;;;;;;;;;;;;;1029598;28;19910;-78
2021/07/24 03:17:13;;;;;;;;;;;;;;;;;;1030411;28;19989;-82
2021/07/24 03:17:44;;;;;;;;;;;;;;;;;;1033953;28;19906;-80
2021/07/24 03:18:14;;;;;;;;;;;;;;;;;;1034131;28;20359;-79
2021/07/24 03:18:44;;;;;;;;;;;;;;;;;;1033940;28;19945;-80
2021/07/24 03:19:14;;;;;;;;;;;;;;;;;;1034214;28;20233;-80
2021/07/24 03:19:44;;;;;;;;;;;;;;;;;;1038027;28;20024;-80
2021/07/24 03:20:15;;;;;;;;;;;;;;;;;;1036895;28;20047;-81
2021/07/24 03:20:45;;;;;;;;;;;;;;;;;;1038016;28;19969;-82
2021/07/24 03:21:15;;;;;;;;;;;;;;;;;;1037678;28;20004;-80
2021/07/24 03:21:45;;;;;;;;;;;;;;;;;;1038016;28;19916;-79
2021/07/24 03:22:16;;;;;;;;;;;;;;;;;;1041275;28;19909;-81
2021/07/24 03:22:46;;;;;;;;;;;;;;;;;;1041565;28;20027;-80
2021/07/24 03:23:16;;;;;;;;;;;;;;;;;;1041511;28;20342;-79
2021/07/24 03:23:46;;;;;;;;;;;;;;;;;;1041455;28;19917;-80
2021/07/24 03:24:17;;;;;;;;;;;;;;;;;;1033375;28;19909;-80
2021/07/24 03:24:47;;;;;;;;;;;;;;;;;;1037798;28;19932;-81
2021/07/24 03:25:20;;;;;;;;;;;;;;;;;;1038348;28;19921;-81
2021/07/24 03:25:50;;;;;;;;;;;;;;;;;;1034992;28;19916;-81
2021/07/24 03:26:20;;;;;;;;;;;;;;;;;;1035625;28;19938;-82
2021/07/24 03:26:51;;;;;;;;;;;;;;;;;;1035306;28;19976;-81
2021/07/24 03:27:21;;;;;;;;;;;;;;;;;;1038890;28;19910;-81
2021/07/24 03:27:51;;;;;;;;;;;;;;;;;;1042721;28;19909;-82
2021/07/24 03:28:21;;;;;;;;;;;;;;;;;;1042647;28;19932;-81
2021/07/24 03:28:52;;;;;;;;;;;;;;;;;;1038672;28;19941;-79
2021/07/24 03:29:23;;;;;;;;;;;;;;;;;;1037858;28;20419;-82
2021/07/24 03:29:53;;;;;;;;;;;;;;;;;;1037367;28;20522;-80
2021/07/24 03:30:23;;;;;;;;;;;;;;;;;;1033095;28;19910;-80
2021/07/24 03:30:53;;;;;;;;;;;;;;;;;;1037096;28;19910;-81
2021/07/24 03:31:24;;;;;;;;;;;;;;;;;;1037224;28;20377;-82